Time;durP1;ratioP1;P1;durP2;ratioP2;P2;SDS_P1;SDS_P2;PMS_P1;PMS_P2;Temp;Humidity;BMP_temperature;BMP_pressure;BME280_temperature;BME280_humidity;BME280_pressure;Samples;Min_cycle;Max_cycle;Signal;HPM_P1;HPM_P2
2023/06/28 00:02:20;;;;;;;19.40;17.90;;;11.00;99.90;;;;;;4993663;28;20034;-71
2023/06/28 00:04:46;;;;;;;18.80;17.33;;;10.90;99.90;;;;;;4997276;28;20133;-71
2023/06/28 00:07:14;;;;;;;17.67;16.58;;;10.70;99.90;;;;;;4993735;28;20073;-72
2023/06/28 00:09:41;;;;;;;18.73;17.52;;;10.50;99.90;;;;;;4977060;28;20519;-72
2023/06/28 00:12:08;;;;;;;18.50;17.30;;;10.40;99.90;;;;;;4993770;28;20041;-72
2023/06/28 00:14:35;;;;;;;18.27;17.17;;;10.30;99.90;;;;;;4994567;28;20096;-72
2023/06/28 00:17:01;;;;;;;19.40;18.10;;;10.30;99.90;;;;;;4994691;28;20041;-72
2023/06/28 00:19:28;;;;;;;19.35;17.83;;;10.20;99.90;;;;;;4996115;28;20054;-72
2023/06/28 00:21:56;;;;;;;19.50;18.15;;;10.10;99.90;;;;;;4994307;28;20038;-72
2023/06/28 00:24:23;;;;;;;19.90;18.42;;;10.10;99.90;;;;;;4996104;28;20096;-71
2023/06/28 00:26:50;;;;;;;19.27;17.92;;;10.20;99.90;;;;;;4991568;28;20125;-73
2023/06/28 00:29:17;;;;;;;19.55;17.88;;;10.20;99.90;;;;;;4976817;28;20069;-71
2023/06/28 00:31:44;;;;;;;19.33;18.13;;;10.30;99.90;;;;;;4978315;28;20057;-71
2023/06/28 00:34:11;;;;;;;19.75;18.45;;;10.30;99.90;;;;;;4990333;28;20041;-72
2023/06/28 00:36:37;;;;;;;19.63;18.05;;;10.30;99.90;;;;;;4994707;28;20076;-71
2023/06/28 00:39:05;;;;;;;19.88;18.48;;;10.40;99.90;;;;;;4994596;28;20741;-72
2023/06/28 00:41:31;;;;;;;20.77;19.17;;;10.10;99.90;;;;;;4992354;28;20050;-72
2023/06/28 00:44:00;;;;;;;19.60;18.10;;;10.10;99.90;;;;;;4989100;28;20066;-72
2023/06/28 00:46:26;;;;;;;20.13;18.40;;;10.00;99.90;;;;;;4993154;28;20073;-72
2023/06/28 00:48:53;;;;;;;19.70;18.38;;;9.90;99.90;;;;;;4995893;28;20054;-72
2023/06/28 00:51:22;;;;;;;20.20;18.70;;;9.90;99.90;;;;;;4993601;28;20548;-72
2023/06/28 00:53:49;;;;;;;20.35;18.77;;;9.90;99.90;;;;;;4992573;28;20112;-72
2023/06/28 00:56:15;;;;;;;19.88;18.27;;;9.80;99.90;;;;;;4993619;28;20050;-73
2023/06/28 00:58:42;;;;;;;19.48;18.00;;;9.70;99.90;;;;;;4995452;28;20096;-71
2023/06/28 01:01:10;;;;;;;20.13;18.67;;;9.70;99.90;;;;;;4990501;28;20621;-72
2023/06/28 01:03:37;;;;;;;19.95;18.58;;;9.70;99.90;;;;;;4992718;28;20046;-72
2023/06/28 01:06:04;;;;;;;20.27;18.70;;;9.70;99.90;;;;;;4973259;28;20117;-72
2023/06/28 01:08:32;;;;;;;20.27;18.77;;;9.80;99.90;;;;;;4992805;28;20062;-72
2023/06/28 01:10:59;;;;;;;20.65;18.70;;;9.80;99.90;;;;;;4992478;28;20045;-72
2023/06/28 01:13:26;;;;;;;19.70;18.25;;;9.80;99.90;;;;;;4994939;28;20061;-71
2023/06/28 01:15:55;;;;;;;20.05;18.42;;;9.70;99.90;;;;;;4993901;28;20099;-72
2023/06/28 01:18:23;;;;;;;20.50;19.00;;;9.70;99.90;;;;;;4998465;28;20049;-72
2023/06/28 01:20:54;;;;;;;20.27;18.77;;;9.50;99.90;;;;;;4997654;28;20042;-72
2023/06/28 01:23:27;;;;;;;19.70;18.23;;;9.60;99.90;;;;;;4976045;28;21064;-72
2023/06/28 01:26:02;;;;;;;19.52;18.02;;;9.50;99.90;;;;;;4993707;28;20042;-71
2023/06/28 01:28:30;;;;;;;19.23;18.00;;;9.40;99.90;;;;;;4995895;28;20046;-72
2023/06/28 01:30:59;;;;;;;19.83;18.60;;;9.30;99.90;;;;;;4992935;28;20049;-69
2023/06/28 01:33:26;;;;;;;20.45;19.05;;;9.30;99.90;;;;;;4991562;28;20578;-71
2023/06/28 01:35:55;;;;;;;20.17;18.88;;;9.30;99.90;;;;;;4990360;28;20046;-72
2023/06/28 01:38:23;;;;;;;20.65;19.30;;;9.20;99.90;;;;;;4992352;28;20107;-72
2023/06/28 01:40:51;;;;;;;20.23;18.80;;;9.20;99.90;;;;;;4993000;28;20127;-72
2023/06/28 01:43:19;;;;;;;20.30;18.65;;;9.20;99.90;;;;;;4991770;28;20050;-71
2023/06/28 01:45:46;;;;;;;19.95;18.45;;;9.30;99.90;;;;;;4991658;28;20042;-72
2023/06/28 01:48:13;;;;;;;19.73;18.52;;;9.40;99.90;;;;;;4990746;28;20676;-71
2023/06/28 01:50:40;;;;;;;20.25;18.80;;;9.40;99.90;;;;;;4989582;28;20038;-72
2023/06/28 01:53:08;;;;;;;20.00;18.48;;;9.20;99.90;;;;;;4991800;28;20456;-72
2023/06/28 01:55:35;;;;;;;20.73;19.23;;;9.20;99.90;;;;;;4991353;28;20045;-72
2023/06/28 01:58:01;;;;;;;20.50;19.00;;;9.20;99.90;;;;;;4991262;28;20077;-72
2023/06/28 02:00:29;;;;;;;20.20;18.70;;;9.00;99.90;;;;;;4992637;28;20751;-72
2023/06/28 02:02:55;;;;;;;21.60;19.48;;;9.00;99.90;;;;;;4993661;28;20108;-72
2023/06/28 02:05:22;;;;;;;20.33;18.98;;;9.00;99.90;;;;;;4994457;28;20142;-72
2023/06/28 02:07:49;;;;;;;21.42;19.50;;;9.00;99.90;;;;;;4994269;28;20067;-71
2023/06/28 02:10:18;;;;;;;20.90;19.33;;;9.10;99.90;;;;;;4992074;28;20046;-72
2023/06/28 02:12:44;;;;;;;21.38;19.90;;;9.00;99.90;;;;;;4992766;28;20046;-72
2023/06/28 02:15:14;;;;;;;20.73;19.20;;;8.80;99.90;;;;;;4995093;28;20104;-71
2023/06/28 02:17:43;;;;;;;20.73;19.23;;;8.80;99.90;;;;;;4998164;28;20713;-71
2023/06/28 02:20:10;;;;;;;20.50;18.95;;;8.70;99.90;;;;;;4996796;28;20034;-72
2023/06/28 02:22:39;;;;;;;22.48;20.50;;;8.60;99.90;;;;;;4999701;28;20095;-72
2023/06/28 02:25:06;;;;;;;21.67;19.90;;;8.70;99.90;;;;;;4998745;28;20046;-72
2023/06/28 02:27:33;;;;;;;21.55;19.95;;;8.70;99.90;;;;;;4996578;28;20042;-72
2023/06/28 02:30:00;;;;;;;21.25;19.50;;;8.50;99.90;;;;;;4996578;28;20107;-70
2023/06/28 02:32:30;;;;;;;21.10;19.60;;;8.60;99.90;;;;;;4993890;28;20054;-71
2023/06/28 02:34:58;;;;;;;21.60;19.65;;;8.60;99.90;;;;;;4991447;28;20103;-72
2023/06/28 02:37:25;;;;;;;20.67;19.13;;;8.60;99.90;;;;;;4991779;28;20040;-72
2023/06/28 02:39:52;;;;;;;20.50;18.98;;;8.50;99.90;;;;;;4993789;28;20052;-71
2023/06/28 02:42:19;;;;;;;21.77;19.98;;;8.60;99.90;;;;;;4991155;28;20046;-71
2023/06/28 02:44:45;;;;;;;20.50;19.20;;;8.70;99.90;;;;;;4991433;28;20038;-71
2023/06/28 02:47:13;;;;;;;20.95;19.05;;;8.60;99.90;;;;;;4990443;28;20088;-71
2023/06/28 02:49:40;;;;;;;20.48;19.00;;;8.50;99.90;;;;;;4989746;28;20573;-72
2023/06/28 02:52:07;;;;;;;21.75;20.05;;;8.60;99.90;;;;;;4990616;28;20049;-72
2023/06/28 02:54:34;;;;;;;21.30;19.90;;;8.70;99.90;;;;;;4992230;28;20068;-72
2023/06/28 02:57:01;;;;;;;21.40;20.00;;;8.50;99.90;;;;;;4995815;28;20605;-72
2023/06/28 02:59:43;;;;;;;21.83;20.02;;;8.60;99.90;;;;;;4996893;28;20286;-71
2023/06/28 03:02:10;;;;;;;20.45;19.05;;;8.70;99.90;;;;;;4977705;28;20064;-72
2023/06/28 03:04:39;;;;;;;20.77;19.10;;;8.60;99.90;;;;;;4994324;28;20666;-72
2023/06/28 03:07:15;;;;;;;22.00;20.15;;;8.40;99.90;;;;;;4992654;28;20046;-72
2023/06/28 03:09:42;;;;;;;22.52;20.30;;;8.30;99.90;;;;;;5000514;28;20041;-71
2023/06/28 03:12:09;;;;;;;20.40;19.02;;;8.30;99.90;;;;;;4996539;28;20073;-72
2023/06/28 03:14:37;;;;;;;21.60;19.90;;;8.30;99.90;;;;;;4995432;28;20049;-72
2023/06/28 03:17:05;;;;;;;22.40;20.92;;;8.40;99.90;;;;;;4993492;28;20050;-72
2023/06/28 03:19:32;;;;;;;21.90;20.25;;;8.30;99.90;;;;;;4996991;28;20204;-72
2023/06/28 03:21:59;;;;;;;22.05;20.17;;;8.30;99.90;;;;;;4990323;28;20271;-72
2023/06/28 03:24:25;;;;;;;22.05;20.63;;;8.40;99.90;;;;;;4978146;28;20050;-72
2023/06/28 03:26:52;;;;;;;22.17;20.58;;;8.40;99.90;;;;;;4993999;28;20155;-71
2023/06/28 03:29:19;;;;;;;22.60;20.73;;;8.30;99.90;;;;;;4994333;28;20058;-71
2023/06/28 03:31:46;;;;;;;22.95;21.13;;;8.30;99.90;;;;;;4996182;28;20566;-72
2023/06/28 03:34:13;;;;;;;23.08;21.23;;;8.20;99.90;;;;;;4990143;28;20129;-72
2023/06/28 03:36:43;;;;;;;23.15;21.10;;;8.40;99.90;;;;;;4979368;28;20704;-71
2023/06/28 03:39:29;;;;;;;22.58;21.08;;;8.50;99.90;;;;;;4994287;28;20041;-72
2023/06/28 03:41:56;;;;;;;22.17;20.58;;;8.50;99.90;;;;;;4995470;28;20045;-72
2023/06/28 03:44:23;;;;;;;22.52;20.98;;;8.50;99.90;;;;;;4991959;28;20058;-72
2023/06/28 03:46:49;;;;;;;22.55;20.85;;;8.40;99.90;;;;;;4994032;28;20052;-72
2023/06/28 03:49:18;;;;;;;23.20;20.98;;;8.30;99.90;;;;;;4993590;28;20046;-72
2023/06/28 03:51:45;;;;;;;21.95;20.52;;;8.30;99.90;;;;;;4991419;28;20046;-72
2023/06/28 03:54:13;;;;;;;22.02;20.20;;;8.60;99.90;;;;;;4975653;28;20042;-72
2023/06/28 03:56:42;;;;;;;22.92;20.80;;;8.60;99.90;;;;;;4991957;28;20041;-71
2023/06/28 03:59:08;;;;;;;21.48;19.77;;;8.70;99.90;;;;;;4994151;28;20042;-72
2023/06/28 04:01:35;;;;;;;21.00;19.13;;;8.80;99.90;;;;;;4996088;28;20041;-71
2023/06/28 04:04:02;;;;;;;20.85;19.33;;;8.70;99.90;;;;;;4996443;28;20722;-71
2023/06/28 04:06:29;;;;;;;20.35;19.00;;;8.90;99.90;;;;;;4993138;28;20037;-72
2023/06/28 04:08:56;;;;;;;20.70;19.33;;;9.10;99.90;;;;;;4992618;28;21141;-71
2023/06/28 04:11:23;;;;;;;20.67;19.25;;;9.10;99.90;;;;;;4990286;28;20137;-71
2023/06/28 04:13:49;;;;;;;21.92;20.20;;;9.00;99.90;;;;;;5000313;28;20074;-72
2023/06/28 04:16:16;;;;;;;21.45;19.63;;;9.10;99.90;;;;;;4993639;28;20582;-72
2023/06/28 04:18:43;;;;;;;21.25;19.95;;;9.00;99.90;;;;;;4994439;28;20064;-72
2023/06/28 04:21:09;;;;;;;20.70;19.20;;;9.20;99.90;;;;;;4994486;28;20042;-71
2023/06/28 04:23:38;;;;;;;20.90;19.38;;;9.40;99.90;;;;;;4992869;28;20096;-71
2023/06/28 04:26:05;;;;;;;20.23;18.70;;;9.50;99.90;;;;;;4994179;28;20042;-72
2023/06/28 04:28:32;;;;;;;20.98;19.35;;;9.60;99.90;;;;;;4993927;28;20133;-71
2023/06/28 04:30:58;;;;;;;19.85;18.60;;;9.70;99.90;;;;;;4994255;28;20840;-71
2023/06/28 04:33:29;;;;;;;18.90;17.48;;;10.10;99.90;;;;;;4993592;28;20046;-72
2023/06/28 04:35:57;;;;;;;18.88;17.73;;;10.60;99.90;;;;;;4993279;28;20153;-72
2023/06/28 04:38:24;;;;;;;21.52;19.98;;;11.10;99.90;;;;;;4992203;28;20076;-72
2023/06/28 04:40:51;;;;;;;23.23;21.27;;;11.50;99.90;;;;;;4992695;28;20041;-72
2023/06/28 04:43:20;;;;;;;22.85;21.25;;;11.90;99.90;;;;;;4994540;28;20045;-72
2023/06/28 04:45:48;;;;;;;24.02;22.42;;;12.20;99.90;;;;;;4995151;28;20140;-72
2023/06/28 04:48:15;;;;;;;24.00;22.33;;;12.40;99.90;;;;;;4988996;28;20046;-72
2023/06/28 04:50:47;;;;;;;24.27;22.65;;;12.40;99.90;;;;;;4990044;28;20141;-72
2023/06/28 04:53:14;;;;;;;23.13;21.58;;;12.40;99.90;;;;;;4993914;28;20073;-72
2023/06/28 04:55:43;;;;;;;21.65;20.35;;;12.50;99.90;;;;;;4975789;28;20058;-72
2023/06/28 04:58:11;;;;;;;21.92;20.52;;;12.50;99.90;;;;;;4992785;28;20133;-71
2023/06/28 05:00:39;;;;;;;22.95;21.10;;;12.60;99.90;;;;;;4994762;28;20046;-72
2023/06/28 05:03:06;;;;;;;23.35;21.65;;;12.60;99.90;;;;;;4993431;28;20135;-71
2023/06/28 05:05:33;;;;;;;24.55;22.75;;;12.60;99.90;;;;;;4994951;28;20038;-72
2023/06/28 05:08:00;;;;;;;24.10;22.45;;;12.60;99.90;;;;;;4992451;28;20048;-72
2023/06/28 05:10:27;;;;;;;24.45;22.75;;;12.60;99.90;;;;;;4970374;28;20038;-73
2023/06/28 05:12:54;;;;;;;24.85;22.92;;;12.80;99.90;;;;;;4992245;28;20053;-72
2023/06/28 05:15:21;;;;;;;23.92;22.13;;;13.00;99.90;;;;;;4990605;28;20744;-72
2023/06/28 05:17:48;;;;;;;24.55;22.85;;;13.20;99.90;;;;;;4993645;28;20042;-72
2023/06/28 05:20:15;;;;;;;24.42;22.67;;;13.30;99.90;;;;;;4989877;28;20432;-73
2023/06/28 05:22:47;;;;;;;24.13;22.00;;;13.20;99.90;;;;;;4992659;28;20037;-72
2023/06/28 05:25:13;;;;;;;25.80;23.75;;;13.20;99.90;;;;;;4973742;28;20049;-72
2023/06/28 05:27:40;;;;;;;24.17;22.65;;;13.30;99.90;;;;;;4994245;28;20046;-71
2023/06/28 05:30:08;;;;;;;25.58;23.35;;;13.50;99.90;;;;;;4991217;28;20637;-71
2023/06/28 05:32:35;;;;;;;25.73;23.83;;;13.60;99.90;;;;;;4990920;28;20124;-72
2023/06/28 05:35:02;;;;;;;26.70;24.33;;;13.70;99.90;;;;;;4991418;28;20053;-72
2023/06/28 05:37:29;;;;;;;24.27;22.58;;;13.80;99.90;;;;;;4989311;28;20574;-73
2023/06/28 05:39:56;;;;;;;25.73;23.63;;;13.80;99.90;;;;;;4989187;28;20042;-71
2023/06/28 05:42:23;;;;;;;26.52;24.33;;;13.90;99.90;;;;;;4971414;28;20054;-72
2023/06/28 05:44:50;;;;;;;26.63;24.63;;;14.00;99.90;;;;;;4991446;28;20069;-72
2023/06/28 05:47:17;;;;;;;27.98;25.48;;;14.10;99.90;;;;;;4988195;28;20048;-72
2023/06/28 05:49:44;;;;;;;27.65;24.95;;;14.10;99.90;;;;;;4987447;28;20065;-72
2023/06/28 05:52:12;;;;;;;26.23;24.10;;;14.10;99.90;;;;;;4990304;28;20042;-72
2023/06/28 05:54:39;;;;;;;26.08;23.75;;;14.20;99.90;;;;;;4990351;28;20046;-72
2023/06/28 05:57:05;;;;;;;25.20;23.40;;;14.10;99.90;;;;;;4988948;28;20449;-72
2023/06/28 05:59:32;;;;;;;25.73;23.98;;;14.30;99.90;;;;;;4973137;28;20331;-72
2023/06/28 06:01:59;;;;;;;25.55;23.60;;;14.40;99.90;;;;;;4990420;28;20050;-72
2023/06/28 06:04:26;;;;;;;26.92;24.45;;;14.50;99.90;;;;;;4987337;28;20048;-71
2023/06/28 06:06:52;;;;;;;26.27;24.30;;;14.40;99.90;;;;;;4992205;28;20460;-72
2023/06/28 06:09:20;;;;;;;26.70;24.63;;;14.60;99.90;;;;;;4992442;28;20766;-73
2023/06/28 06:11:47;;;;;;;26.00;23.88;;;14.80;99.90;;;;;;4991315;28;20058;-73
2023/06/28 06:14:15;;;;;;;26.73;24.55;;;14.90;99.90;;;;;;4992296;28;20588;-72
2023/06/28 06:16:42;;;;;;;27.27;25.25;;;15.10;99.90;;;;;;4991977;28;20041;-72
2023/06/28 06:19:09;;;;;;;26.52;24.50;;;15.10;99.90;;;;;;4987881;28;20792;-71
2023/06/28 06:21:36;;;;;;;25.67;23.73;;;15.00;99.90;;;;;;4991001;28;20135;-72
2023/06/28 06:24:07;;;;;;;26.95;24.83;;;15.10;99.90;;;;;;4990000;28;20129;-72
2023/06/28 06:26:35;;;;;;;26.67;24.42;;;15.30;99.90;;;;;;4989735;28;20057;-72
2023/06/28 06:29:02;;;;;;;27.35;25.15;;;15.40;99.90;;;;;;4990371;28;20057;-72
2023/06/28 06:31:29;;;;;;;29.02;26.42;;;15.50;99.90;;;;;;4985875;28;20054;-72
2023/06/28 06:34:02;;;;;;;28.52;26.15;;;15.50;99.90;;;;;;4991340;28;20042;-73
2023/06/28 06:36:29;;;;;;;28.58;26.02;;;15.70;99.90;;;;;;4993441;28;20085;-72
2023/06/28 06:38:57;;;;;;;28.75;26.52;;;15.80;99.90;;;;;;4994411;28;20077;-72
2023/06/28 06:41:23;;;;;;;28.63;26.13;;;16.00;99.90;;;;;;4987535;28;20050;-71
2023/06/28 06:43:51;;;;;;;31.08;27.95;;;16.20;99.90;;;;;;4990240;28;20050;-72
2023/06/28 06:46:21;;;;;;;29.63;27.08;;;16.10;99.90;;;;;;4990923;28;20057;-72
2023/06/28 06:48:47;;;;;;;30.13;27.38;;;16.20;99.90;;;;;;4989744;28;20042;-72
2023/06/28 06:51:14;;;;;;;30.38;27.23;;;16.20;99.90;;;;;;4988701;28;20057;-72
2023/06/28 06:53:41;;;;;;;29.17;26.95;;;16.40;99.90;;;;;;4992312;28;20080;-73
2023/06/28 06:56:08;;;;;;;28.92;26.77;;;16.40;99.90;;;;;;4990530;28;20530;-72
2023/06/28 06:58:36;;;;;;;29.38;26.92;;;16.70;99.90;;;;;;4973785;28;21533;-72
2023/06/28 07:01:03;;;;;;;30.00;27.38;;;16.70;99.90;;;;;;4989190;28;20467;-72
2023/06/28 07:03:30;;;;;;;28.73;26.40;;;16.70;99.90;;;;;;4989947;28;20764;-72
2023/06/28 07:05:56;;;;;;;29.73;27.30;;;16.60;99.90;;;;;;4975961;28;20041;-73
2023/06/28 07:08:23;;;;;;;29.65;27.23;;;16.70;99.90;;;;;;4987249;28;20042;-72
2023/06/28 07:10:51;;;;;;;30.65;27.90;;;16.60;99.90;;;;;;4989423;28;20057;-72
2023/06/28 07:13:17;;;;;;;30.00;27.20;;;16.70;99.90;;;;;;4987789;28;20049;-72
2023/06/28 07:15:44;;;;;;;30.48;28.15;;;16.70;99.90;;;;;;4992835;28;20077;-72
2023/06/28 07:18:11;;;;;;;30.05;27.85;;;16.90;99.90;;;;;;4987686;28;20066;-73
2023/06/28 07:20:38;;;;;;;29.67;27.25;;;17.10;99.90;;;;;;4985580;28;20042;-72
2023/06/28 07:23:04;;;;;;;30.92;28.42;;;17.30;99.90;;;;;;4989404;28;20088;-72
2023/06/28 07:25:32;;;;;;;31.00;28.50;;;17.60;99.90;;;;;;4986389;28;20045;-73
2023/06/28 07:27:59;;;;;;;29.65;27.10;;;17.80;99.90;;;;;;4989402;28;20042;-71
2023/06/28 07:30:30;;;;;;;31.23;28.23;;;17.80;99.90;;;;;;4968249;28;20046;-72
2023/06/28 07:32:57;;;;;;;29.77;27.17;;;17.70;99.90;;;;;;4982126;28;20046;-72
2023/06/28 07:35:24;;;;;;;28.17;26.17;;;17.90;99.90;;;;;;4987937;28;20073;-71
2023/06/28 07:37:52;;;;;;;30.35;27.52;;;17.90;99.90;;;;;;4993044;28;20069;-73
2023/06/28 07:40:19;;;;;;;29.77;27.15;;;17.80;99.90;;;;;;4985401;28;20050;-72
2023/06/28 07:42:46;;;;;;;29.45;27.13;;;17.80;99.90;;;;;;4991404;28;20109;-72
2023/06/28 07:45:13;;;;;;;33.00;29.02;;;18.00;99.90;;;;;;4987349;28;20570;-72
2023/06/28 07:47:40;;;;;;;31.65;29.10;;;17.90;99.90;;;;;;4990557;28;20038;-72
2023/06/28 07:50:09;;;;;;;33.15;30.50;;;17.90;99.90;;;;;;4994493;28;20436;-73
2023/06/28 07:52:36;;;;;;;31.45;28.95;;;18.00;99.90;;;;;;4993347;28;20056;-72
2023/06/28 07:55:05;;;;;;;31.55;29.13;;;18.50;99.90;;;;;;4994448;28;20128;-72
2023/06/28 07:57:32;;;;;;;31.20;29.02;;;19.00;99.90;;;;;;4993549;28;20097;-73
2023/06/28 07:59:58;;;;;;;31.75;29.27;;;19.30;99.90;;;;;;4990182;28;20046;-72
2023/06/28 08:02:25;;;;;;;31.15;28.73;;;19.30;99.90;;;;;;4988652;28;20598;-72
2023/06/28 08:04:52;;;;;;;29.58;27.58;;;19.50;99.90;;;;;;4991812;28;20065;-72
2023/06/28 08:07:19;;;;;;;30.67;28.45;;;19.80;99.90;;;;;;4993832;28;20042;-71
2023/06/28 08:09:46;;;;;;;32.05;29.63;;;19.90;99.90;;;;;;4993846;28;20060;-74
2023/06/28 08:12:13;;;;;;;30.83;28.48;;;20.10;99.90;;;;;;4994806;28;20049;-72
2023/06/28 08:14:40;;;;;;;32.28;30.05;;;20.30;99.90;;;;;;4990730;28;21239;-72
2023/06/28 08:17:07;;;;;;;34.08;31.48;;;20.60;99.90;;;;;;4990510;28;20042;-73
2023/06/28 08:19:35;;;;;;;33.28;30.95;;;20.70;99.90;;;;;;4988282;28;20137;-73
2023/06/28 08:22:03;;;;;;;33.85;31.52;;;20.80;99.90;;;;;;4991234;28;20042;-73
2023/06/28 08:24:30;;;;;;;34.33;31.85;;;20.90;99.90;;;;;;4990549;28;20074;-73
2023/06/28 08:26:57;;;;;;;33.55;31.08;;;20.80;99.90;;;;;;4990515;28;20100;-73
2023/06/28 08:29:24;;;;;;;33.83;31.27;;;20.70;99.90;;;;;;4990949;28;20128;-72
2023/06/28 08:31:50;;;;;;;31.98;29.60;;;20.70;99.90;;;;;;4994006;28;20730;-73
2023/06/28 08:34:18;;;;;;;33.47;31.00;;;21.00;99.90;;;;;;4990776;28;20729;-73
2023/06/28 08:36:44;;;;;;;30.63;28.58;;;21.30;99.90;;;;;;4988953;28;20100;-73
2023/06/28 08:39:11;;;;;;;31.75;29.10;;;21.00;99.90;;;;;;4976046;28;20106;-72
2023/06/28 08:41:40;;;;;;;31.00;28.73;;;20.70;99.90;;;;;;4971309;28;20611;-73
2023/06/28 08:44:11;;;;;;;34.03;31.55;;;20.70;99.90;;;;;;4989913;28;20119;-73
2023/06/28 08:46:42;;;;;;;30.33;28.17;;;20.70;99.90;;;;;;4992652;28;20073;-73
2023/06/28 08:49:10;;;;;;;33.20;30.50;;;21.00;99.90;;;;;;4993262;28;20587;-73
2023/06/28 08:51:37;;;;;;;33.00;30.75;;;21.10;99.90;;;;;;4988373;28;20065;-72
2023/06/28 08:54:08;;;;;;;33.63;31.50;;;21.50;99.90;;;;;;4988723;28;20550;-73
2023/06/28 08:56:35;;;;;;;32.83;30.63;;;21.60;99.90;;;;;;4988372;28;20042;-73
2023/06/28 08:59:15;;;;;;;31.95;29.50;;;21.70;99.90;;;;;;4994201;28;20081;-72
2023/06/28 09:01:42;;;;;;;32.17;29.80;;;22.00;99.90;;;;;;4989065;28;20844;-73
2023/06/28 09:04:10;;;;;;;32.90;30.42;;;22.10;99.90;;;;;;4990508;28;20117;-72
2023/06/28 09:06:36;;;;;;;31.70;29.52;;;22.40;99.90;;;;;;4985991;28;20057;-72
2023/06/28 09:09:04;;;;;;;33.88;31.52;;;22.30;99.90;;;;;;4989548;28;20702;-72
2023/06/28 09:11:31;;;;;;;32.58;30.27;;;22.00;99.90;;;;;;4984964;28;20524;-72
2023/06/28 09:13:58;;;;;;;32.95;30.17;;;22.20;99.90;;;;;;4992541;28;20658;-72
2023/06/28 09:16:25;;;;;;;32.22;29.85;;;22.30;99.90;;;;;;4991712;28;20049;-73
2023/06/28 09:18:52;;;;;;;30.48;28.13;;;22.30;99.90;;;;;;4991975;28;20119;-72
2023/06/28 09:21:29;;;;;;;31.90;29.40;;;22.20;99.90;;;;;;4986418;28;20044;-72
2023/06/28 09:23:57;;;;;;;33.95;31.42;;;21.80;99.90;;;;;;4993623;28;20053;-72
2023/06/28 09:26:31;;;;;;;32.38;30.23;;;21.50;99.90;;;;;;4992230;28;20487;-72
2023/06/28 09:29:09;;;;;;;33.83;31.17;;;21.50;99.90;;;;;;4992731;28;20137;-72
2023/06/28 09:31:47;;;;;;;35.85;33.35;;;21.50;99.90;;;;;;4986883;28;20697;-73
2023/06/28 09:34:22;;;;;;;31.85;29.75;;;21.70;99.90;;;;;;4989046;28;20050;-73
2023/06/28 09:36:52;;;;;;;;;;;22.20;99.90;;;;;;4973257;28;20133;-72
2023/06/28 09:39:20;;;;;;;34.47;32.08;;;22.30;99.90;;;;;;4993235;28;20410;-72
2023/06/28 09:41:48;;;;;;;32.70;30.60;;;22.60;99.90;;;;;;4983008;28;20404;-72
2023/06/28 09:44:25;;;;;;;33.35;30.95;;;22.80;99.90;;;;;;4987543;28;20708;-72
2023/06/28 09:47:03;;;;;;;31.50;29.40;;;22.30;99.90;;;;;;4990560;28;20108;-73
2023/06/28 09:49:30;;;;;;;33.80;31.40;;;22.40;99.90;;;;;;5003180;28;20392;-73
2023/06/28 09:52:02;;;;;;;34.65;32.15;;;22.20;99.90;;;;;;4988152;28;20060;-73
2023/06/28 09:54:44;;;;;;;32.58;30.08;;;22.50;99.90;;;;;;4987552;28;20049;-72
2023/06/28 09:57:12;;;;;;;33.85;31.45;;;22.60;99.90;;;;;;4988349;28;20084;-72
2023/06/28 09:59:39;;;;;;;34.83;32.33;;;22.50;99.90;;;;;;4988123;28;20046;-72
2023/06/28 10:02:08;;;;;;;33.90;31.63;;;22.50;99.90;;;;;;4990965;28;20037;-73
2023/06/28 10:04:39;;;;;;;33.78;31.40;;;22.70;99.90;;;;;;4988237;28;20053;-73
2023/06/28 10:07:08;;;;;;;33.03;30.90;;;22.90;99.90;;;;;;4994742;28;20049;-73
2023/06/28 10:09:39;;;;;;;31.63;29.48;;;22.50;99.90;;;;;;4987777;28;20045;-73
2023/06/28 10:12:16;;;;;;;32.53;30.05;;;22.20;99.90;;;;;;4986423;28;20041;-72
2023/06/28 10:14:55;;;;;;;33.05;30.63;;;22.20;99.90;;;;;;4984808;28;20042;-73
2023/06/28 10:17:31;;;;;;;34.83;32.05;;;22.10;99.90;;;;;;4987611;28;20554;-72
2023/06/28 10:19:59;;;;;;;35.33;32.75;;;22.00;99.90;;;;;;4988241;28;20048;-72
2023/06/28 10:22:27;;;;;;;34.42;31.85;;;21.90;99.90;;;;;;4969063;28;20042;-72
2023/06/28 10:24:56;;;;;;;34.15;31.85;;;21.60;99.90;;;;;;4990857;28;20141;-72
2023/06/28 10:27:23;;;;;;;35.08;32.63;;;21.60;99.90;;;;;;4987546;28;20046;-72
2023/06/28 10:29:52;;;;;;;36.15;33.28;;;21.60;99.90;;;;;;4982092;28;20089;-73
2023/06/28 10:32:19;;;;;;;35.33;32.47;;;21.80;99.90;;;;;;4992944;28;20519;-73
2023/06/28 10:34:47;;;;;;;34.47;31.98;;;21.90;99.90;;;;;;4976228;28;20057;-75
2023/06/28 10:37:22;;;;;;;38.53;35.70;;;21.60;99.90;;;;;;4993409;28;20041;-72
2023/06/28 10:39:50;;;;;;;;;;;21.70;99.90;;;;;;4988390;28;20057;-73
2023/06/28 10:42:19;;;;;;;34.60;32.20;;;22.10;99.90;;;;;;4992123;28;20004;-72
2023/06/28 10:44:56;;;;;;;34.60;32.03;;;22.30;99.90;;;;;;4988650;28;20042;-73
2023/06/28 10:47:24;;;;;;;34.67;32.00;;;22.30;99.90;;;;;;4989047;28;20149;-73
2023/06/28 10:50:05;;;;;;;37.53;34.90;;;22.10;99.90;;;;;;4993195;28;20037;-71
2023/06/28 10:52:32;;;;;;;34.88;32.17;;;22.10;99.90;;;;;;4988737;28;20096;-73
2023/06/28 10:55:01;;;;;;;35.28;32.78;;;21.90;99.90;;;;;;4989213;28;20052;-72
2023/06/28 10:58:02;;;;;;;35.55;32.78;;;21.90;99.90;;;;;;4971648;28;20045;-73
2023/06/28 11:00:41;;;;;;;36.63;34.00;;;21.90;99.90;;;;;;4989611;28;20049;-73
2023/06/28 11:03:08;;;;;;;35.00;32.30;;;21.70;99.90;;;;;;4988102;28;20048;-72
2023/06/28 11:05:45;;;;;;;32.63;30.40;;;21.90;99.90;;;;;;4988728;28;20069;-72
2023/06/28 11:08:15;;;;;;;32.15;29.75;;;22.00;99.90;;;;;;4992405;28;20050;-73
2023/06/28 11:10:44;;;;;;;36.20;33.67;;;21.90;99.90;;;;;;4988061;28;20050;-73
2023/06/28 11:13:13;;;;;;;36.63;34.13;;;21.90;99.90;;;;;;4988129;28;20057;-73
2023/06/28 11:15:45;;;;;;;34.97;32.40;;;22.20;99.90;;;;;;4987265;28;20050;-73
2023/06/28 11:18:16;;;;;;;35.85;33.25;;;22.50;99.90;;;;;;4994477;28;20042;-72
2023/06/28 11:20:59;;;;;;;35.10;32.83;;;22.20;99.90;;;;;;4991483;28;20050;-73
2023/06/28 11:23:41;;;;;;;36.47;33.58;;;22.20;99.90;;;;;;4992383;28;20061;-72
2023/06/28 11:26:12;;;;;;;38.15;35.72;;;22.20;99.90;;;;;;4991821;28;20062;-73
2023/06/28 11:28:49;;;;;;;35.78;33.30;;;22.30;99.90;;;;;;4995534;28;20937;-73
2023/06/28 11:31:25;;;;;;;33.30;30.80;;;22.50;99.90;;;;;;4995042;28;20037;-72
2023/06/28 11:33:56;;;;;;;34.38;31.60;;;22.50;99.90;;;;;;4992830;28;20061;-72
2023/06/28 11:36:24;;;;;;;34.90;32.35;;;22.60;99.90;;;;;;4992130;28;20077;-73
2023/06/28 11:38:52;;;;;;;35.30;32.65;;;22.40;99.90;;;;;;4989164;28;20048;-73
2023/06/28 11:41:19;;;;;;;34.30;31.67;;;22.30;99.90;;;;;;4992997;28;20042;-72
2023/06/28 11:43:47;;;;;;;37.42;34.70;;;22.30;99.90;;;;;;4991111;28;20528;-73
2023/06/28 11:46:18;;;;;;;39.50;36.53;;;22.30;99.90;;;;;;4990253;28;20076;-73
2023/06/28 11:48:49;;;;;;;34.25;31.85;;;22.80;99.90;;;;;;4992420;28;20053;-73
2023/06/28 11:51:16;;;;;;;33.00;30.42;;;23.00;99.90;;;;;;4994773;28;20049;-73
2023/06/28 11:53:48;;;;;;;33.70;31.30;;;23.10;99.90;;;;;;4991564;28;20158;-72
2023/06/28 11:56:15;;;;;;;33.70;31.58;;;22.70;99.90;;;;;;4994638;28;20049;-72
2023/06/28 11:58:42;;;;;;;36.90;34.45;;;22.60;99.90;;;;;;4991581;28;20703;-73
2023/06/28 12:01:20;;;;;;;35.40;33.00;;;22.70;99.90;;;;;;4992379;28;20042;-73
2023/06/28 12:03:47;;;;;;;33.40;30.85;;;22.90;99.90;;;;;;4991443;28;20048;-73
2023/06/28 12:06:14;;;;;;;33.13;30.52;;;23.30;99.90;;;;;;4990086;28;20041;-73
2023/06/28 12:08:41;;;;;;;33.28;31.02;;;23.30;99.90;;;;;;4994467;28;20107;-72
2023/06/28 12:11:10;;;;;;;35.75;33.38;;;23.30;99.90;;;;;;4993032;28;20041;-72
2023/06/28 12:13:38;;;;;;;34.00;31.35;;;23.40;99.90;;;;;;4990895;28;20211;-72
2023/06/28 12:16:16;;;;;;;33.45;31.00;;;23.40;99.90;;;;;;4988390;28;20038;-72
2023/06/28 12:18:57;;;;;;;32.80;29.95;;;23.60;99.90;;;;;;4991735;28;20650;-72
2023/06/28 12:21:24;;;;;;;32.80;30.40;;;23.90;99.90;;;;;;4992168;28;21809;-72
2023/06/28 12:23:52;;;;;;;35.17;32.50;;;23.60;99.90;;;;;;4990550;28;20049;-72
2023/06/28 12:26:22;;;;;;;32.20;30.00;;;23.60;99.90;;;;;;4990740;28;20138;-73
2023/06/28 12:28:50;;;;;;;38.03;35.38;;;23.40;99.90;;;;;;4989706;28;20618;-73
2023/06/28 12:31:17;;;;;;;36.10;33.00;;;23.50;99.90;;;;;;4992080;28;20756;-73
2023/06/28 12:33:52;;;;;;;35.03;32.72;;;23.60;99.90;;;;;;4990422;28;20038;-73
2023/06/28 12:36:19;;;;;;;29.80;27.50;;;23.90;99.90;;;;;;4973696;28;20088;-72
2023/06/28 12:38:46;;;;;;;32.25;29.73;;;24.00;99.90;;;;;;4994650;28;20574;-73